createdAt,value
2019-03-03T00:00:54.184Z,6.19
2019-03-03T00:01:54.231Z,6.09
2019-03-03T00:02:54.160Z,5.40
2019-03-03T00:03:54.149Z,5.50
2019-03-03T00:04:54.146Z,5.40
2019-03-03T00:05:54.138Z,4.69
2019-03-03T00:06:54.180Z,4.30
2019-03-03T00:07:54.119Z,6.40
2019-03-03T00:08:54.091Z,8.19
2019-03-03T00:09:54.084Z,8.30
2019-03-03T00:10:54.078Z,5.19
2019-03-03T00:11:54.057Z,8.60
2019-03-03T00:12:54.049Z,5.19
2019-03-03T00:13:54.038Z,7.50
2019-03-03T00:14:54.030Z,5.90
2019-03-03T00:15:54.250Z,8.60
2019-03-03T00:16:54.046Z,5.30
2019-03-03T00:17:54.001Z,7.69
2019-03-03T00:18:53.992Z,5.80
2019-03-03T00:19:53.985Z,5.69
2019-03-03T00:20:53.974Z,5.69
2019-03-03T00:21:53.954Z,9.30
2019-03-03T00:22:53.943Z,6.80
2019-03-03T00:23:53.923Z,4.90
2019-03-03T00:24:53.917Z,4.80
2019-03-03T00:25:53.931Z,7.80
2019-03-03T00:26:53.896Z,6.59
2019-03-03T00:27:53.890Z,5.69
2019-03-03T00:28:53.892Z,7.00
2019-03-03T00:29:53.896Z,6.69
2019-03-03T00:30:53.852Z,7.09
2019-03-03T00:31:53.846Z,4.09
2019-03-03T00:32:53.825Z,7.09
2019-03-03T00:33:53.818Z,4.19
2019-03-03T00:34:53.821Z,6.50
2019-03-03T00:35:53.802Z,6.00
2019-03-03T00:36:53.780Z,8.60
2019-03-03T00:37:53.782Z,8.50
2019-03-03T00:38:53.784Z,6.90
2019-03-03T00:39:53.749Z,8.10
2019-03-03T00:40:53.755Z,5.09
2019-03-03T00:41:53.726Z,8.19
2019-03-03T00:42:53.722Z,6.19
2019-03-03T00:43:53.703Z,5.90
2019-03-03T00:44:53.709Z,6.50
2019-03-03T00:45:53.688Z,6.00
2019-03-03T00:46:53.683Z,8.60
2019-03-03T00:47:53.664Z,8.89
2019-03-03T00:48:53.648Z,6.09
2019-03-03T00:49:53.641Z,5.09
2019-03-03T00:50:53.631Z,6.40
2019-03-03T00:51:53.619Z,5.90
2019-03-03T00:52:53.609Z,9.80
2019-03-03T00:53:53.590Z,8.30
2019-03-03T00:54:53.585Z,8.89
2019-03-03T00:55:53.577Z,6.90
2019-03-03T00:56:53.566Z,6.19
2019-03-03T00:57:53.558Z,8.19
2019-03-03T00:58:53.548Z,4.90
2019-03-03T00:59:53.540Z,6.59
2019-03-03T01:00:53.566Z,6.19
2019-03-03T01:01:53.564Z,9.19
2019-03-03T01:02:53.494Z,8.50
2019-03-03T01:03:53.493Z,6.30
2019-03-03T01:04:53.471Z,9.89
2019-03-03T01:05:53.463Z,8.00
2019-03-03T01:06:53.455Z,8.89
2019-03-03T01:07:53.435Z,9.10
2019-03-03T01:08:53.426Z,6.30
2019-03-03T01:09:53.414Z,7.30
2019-03-03T01:10:53.402Z,8.30
2019-03-03T01:11:53.403Z,6.09
2019-03-03T01:12:53.384Z,7.80
2019-03-03T01:13:55.584Z,5.69
2019-03-03T01:14:53.378Z,7.59
2019-03-03T01:15:53.351Z,6.40
2019-03-03T01:16:53.341Z,6.09
2019-03-03T01:17:53.339Z,7.50
2019-03-03T01:18:53.335Z,7.59
2019-03-03T01:19:53.325Z,8.80
2019-03-03T01:20:53.296Z,6.00
2019-03-03T01:21:53.322Z,6.09
2019-03-03T01:22:53.278Z,7.19
2019-03-03T01:23:53.281Z,7.59
2019-03-03T01:24:53.302Z,7.30
2019-03-03T01:25:53.265Z,6.90
2019-03-03T01:26:53.229Z,6.50
2019-03-03T01:27:53.230Z,7.19
2019-03-03T01:28:53.216Z,6.50
2019-03-03T01:29:53.206Z,7.59
2019-03-03T01:30:53.201Z,7.69
2019-03-03T01:31:53.241Z,8.89
2019-03-03T01:32:53.170Z,7.69
2019-03-03T01:33:53.161Z,7.00
2019-03-03T01:34:53.142Z,8.10
2019-03-03T01:35:53.163Z,6.30
2019-03-03T01:36:53.124Z,10.10
2019-03-03T01:37:53.119Z,7.00
2019-03-03T01:38:53.108Z,9.89
2019-03-03T01:39:53.092Z,7.30
2019-03-03T01:40:53.091Z,5.90
2019-03-03T01:41:53.091Z,6.59
2019-03-03T01:42:53.055Z,9.00
2019-03-03T01:43:53.049Z,9.39
2019-03-03T01:44:53.038Z,9.00
2019-03-03T01:45:53.034Z,8.60
2019-03-03T01:46:53.015Z,6.90
2019-03-03T01:47:53.013Z,7.40
2019-03-03T01:48:53.008Z,7.80
2019-03-03T01:49:52.995Z,6.09
2019-03-03T01:50:52.976Z,7.50
2019-03-03T01:51:53.008Z,6.09
2019-03-03T01:52:52.947Z,4.69
2019-03-03T01:53:52.950Z,5.59
2019-03-03T01:54:52.949Z,5.69
2019-03-03T01:55:52.920Z,5.90
2019-03-03T01:56:52.914Z,6.80
2019-03-03T01:57:52.895Z,8.50
2019-03-03T01:58:52.886Z,8.69
2019-03-03T01:59:52.878Z,8.50
2019-03-03T02:00:52.888Z,7.30
2019-03-03T02:01:52.868Z,5.00
2019-03-03T02:02:52.852Z,8.60
2019-03-03T02:03:52.840Z,6.69
2019-03-03T02:04:52.855Z,9.10
2019-03-03T02:05:52.819Z,10.19
2019-03-03T02:06:52.799Z,7.90
2019-03-03T02:07:52.790Z,6.59
2019-03-03T02:08:52.771Z,6.19
2019-03-03T02:09:52.760Z,8.10
2019-03-03T02:10:52.765Z,5.09
2019-03-03T02:11:52.762Z,5.90
2019-03-03T02:12:52.762Z,8.50
2019-03-03T02:13:52.722Z,7.40
2019-03-03T02:14:52.716Z,5.00
2019-03-03T02:15:52.713Z,6.00
2019-03-03T02:16:52.693Z,7.19
2019-03-03T02:17:52.691Z,6.90
2019-03-03T02:18:52.668Z,8.60
2019-03-03T02:19:52.653Z,5.50
2019-03-03T02:20:52.654Z,7.30
2019-03-03T02:21:52.639Z,9.60
2019-03-03T02:22:52.631Z,8.10
2019-03-03T02:23:52.670Z,9.50
2019-03-03T02:24:52.617Z,9.30
2019-03-03T02:25:52.589Z,9.19
2019-03-03T02:26:52.579Z,7.00
2019-03-03T02:27:52.570Z,7.40
2019-03-03T02:28:52.567Z,7.09
2019-03-03T02:29:52.540Z,7.19
2019-03-03T02:30:52.570Z,7.00
2019-03-03T02:31:52.525Z,9.10
2019-03-03T02:32:52.545Z,9.39
2019-03-03T02:33:52.508Z,8.50
2019-03-03T02:34:52.510Z,9.30
2019-03-03T02:35:52.488Z,6.09
2019-03-03T02:36:52.482Z,8.30
2019-03-03T02:37:52.472Z,10.00
2019-03-03T02:38:52.511Z,6.50
2019-03-03T02:39:52.431Z,6.69
2019-03-03T02:40:52.436Z,6.09
2019-03-03T02:41:52.417Z,9.30
2019-03-03T02:42:52.405Z,9.60
2019-03-03T02:43:52.415Z,7.90
2019-03-03T02:44:52.390Z,6.69
2019-03-03T02:45:52.372Z,9.60
2019-03-03T02:46:52.455Z,10.60
2019-03-03T02:47:52.346Z,7.50
2019-03-03T02:48:52.404Z,6.00
2019-03-03T02:49:52.347Z,6.50
2019-03-03T02:50:52.319Z,8.39
2019-03-03T02:51:52.308Z,7.09
2019-03-03T02:52:52.297Z,6.40
2019-03-03T02:53:52.323Z,13.10
2019-03-03T02:54:52.340Z,8.89
2019-03-03T02:55:52.277Z,7.80
2019-03-03T02:56:52.360Z,7.69
2019-03-03T02:57:52.233Z,4.80
2019-03-03T02:58:52.222Z,9.10
2019-03-03T02:59:52.228Z,8.30
2019-03-03T03:00:52.211Z,9.19
2019-03-03T03:01:52.195Z,7.19
2019-03-03T03:02:52.185Z,6.69
2019-03-03T03:03:52.170Z,5.80
2019-03-03T03:04:52.157Z,8.89
2019-03-03T03:05:52.150Z,7.40
2019-03-03T03:06:52.164Z,8.00
2019-03-03T03:07:52.151Z,8.19
2019-03-03T03:08:52.116Z,6.80
2019-03-03T03:09:52.097Z,7.30
2019-03-03T03:10:52.099Z,7.50
2019-03-03T03:11:52.086Z,5.90
2019-03-03T03:12:52.075Z,7.19
2019-03-03T03:13:52.059Z,9.50
2019-03-03T03:14:52.043Z,5.59
2019-03-03T03:15:52.038Z,8.10
2019-03-03T03:16:52.024Z,10.10
2019-03-03T03:17:52.013Z,7.90
2019-03-03T03:18:52.001Z,9.10
2019-03-03T03:19:51.998Z,6.80
2019-03-03T03:20:51.980Z,8.00
2019-03-03T03:21:51.984Z,4.90
2019-03-03T03:22:52.006Z,5.69
2019-03-03T03:23:51.969Z,7.90
2019-03-03T03:24:51.951Z,9.00
2019-03-03T03:25:51.925Z,6.80
2019-03-03T03:26:51.905Z,10.30
2019-03-03T03:27:51.900Z,7.09
2019-03-03T03:28:51.890Z,9.10
2019-03-03T03:29:51.886Z,10.00
2019-03-03T03:30:51.865Z,8.10
2019-03-03T03:31:51.889Z,7.80
2019-03-03T03:32:51.874Z,8.19
2019-03-03T03:33:51.829Z,8.60
2019-03-03T03:34:51.837Z,7.69
2019-03-03T03:35:51.824Z,8.89
2019-03-03T03:36:51.794Z,8.00
2019-03-03T03:37:51.807Z,9.39
2019-03-03T03:38:51.780Z,7.19
2019-03-03T03:39:51.767Z,9.39
2019-03-03T03:40:51.754Z,9.10
2019-03-03T03:41:51.741Z,11.30
2019-03-03T03:42:51.743Z,9.80
2019-03-03T03:43:51.734Z,10.80
2019-03-03T03:44:51.713Z,10.10
2019-03-03T03:45:51.701Z,11.10
2019-03-03T03:46:51.706Z,9.80
2019-03-03T03:47:51.684Z,11.19
2019-03-03T03:48:51.693Z,7.40
2019-03-03T03:49:51.655Z,11.19
2019-03-03T03:50:51.646Z,7.69
2019-03-03T03:51:51.632Z,8.60
2019-03-03T03:52:51.627Z,7.59
2019-03-03T03:53:51.612Z,9.80
2019-03-03T03:54:51.605Z,10.10
2019-03-03T03:55:51.592Z,10.50
2019-03-03T03:56:51.581Z,15.60
2019-03-03T03:57:51.567Z,9.30
2019-03-03T03:58:51.555Z,9.39
2019-03-03T03:59:51.554Z,7.69
2019-03-03T04:00:51.602Z,9.30
2019-03-03T04:01:51.514Z,7.50
2019-03-03T04:02:51.550Z,11.60
2019-03-03T04:03:51.495Z,7.50
2019-03-03T04:04:51.502Z,9.00
2019-03-03T04:05:51.477Z,10.10
2019-03-03T04:06:51.470Z,6.69
2019-03-03T04:07:51.454Z,8.60
2019-03-03T04:08:51.441Z,9.10
2019-03-03T04:09:51.431Z,5.59
2019-03-03T04:10:51.416Z,9.39
2019-03-03T04:11:51.418Z,7.69
2019-03-03T04:12:51.401Z,11.30
2019-03-03T04:13:51.397Z,8.00
2019-03-03T04:14:51.393Z,8.39
2019-03-03T04:15:51.368Z,10.69
2019-03-03T04:16:51.362Z,6.19
2019-03-03T04:17:51.373Z,12.50
2019-03-03T04:18:51.335Z,8.30
2019-03-03T04:19:51.327Z,10.89
2019-03-03T04:20:51.339Z,8.00
2019-03-03T04:21:51.321Z,7.69
2019-03-03T04:22:51.289Z,10.00
2019-03-03T04:23:51.297Z,11.50
2019-03-03T04:24:51.265Z,11.10
2019-03-03T04:25:51.250Z,9.89
2019-03-03T04:26:51.252Z,5.90
2019-03-03T04:27:51.239Z,12.80
2019-03-03T04:28:51.219Z,10.50
2019-03-03T04:29:51.224Z,8.10
2019-03-03T04:30:51.210Z,8.00
2019-03-03T04:31:51.186Z,11.00
2019-03-03T04:32:51.171Z,10.00
2019-03-03T04:33:51.184Z,7.90
2019-03-03T04:34:51.160Z,10.50
2019-03-03T04:35:51.139Z,10.00
2019-03-03T04:36:51.129Z,8.60
2019-03-03T04:37:51.118Z,7.09
2019-03-03T04:38:51.112Z,10.00
2019-03-03T04:39:51.091Z,9.60
2019-03-03T04:40:51.099Z,11.39
2019-03-03T04:41:51.084Z,8.00
2019-03-03T04:42:51.075Z,9.10
2019-03-03T04:43:51.053Z,9.69
2019-03-03T04:44:51.055Z,6.19
2019-03-03T04:45:51.050Z,9.80
2019-03-03T04:46:51.031Z,7.30
2019-03-03T04:47:51.007Z,8.19
2019-03-03T04:48:51.017Z,9.60
2019-03-03T04:49:50.988Z,8.39
2019-03-03T04:50:51.004Z,8.10
2019-03-03T04:51:50.956Z,9.39
2019-03-03T04:52:50.953Z,7.09
2019-03-03T04:53:50.951Z,10.19
2019-03-03T04:54:50.935Z,6.69
2019-03-03T04:55:50.931Z,10.30
2019-03-03T04:56:50.916Z,9.10
2019-03-03T04:57:50.895Z,8.80
2019-03-03T04:58:50.892Z,6.19
2019-03-03T04:59:50.897Z,11.00
2019-03-03T05:00:50.863Z,10.00
2019-03-03T05:01:50.855Z,8.19
2019-03-03T05:02:50.842Z,6.50
2019-03-03T05:03:50.828Z,9.89
2019-03-03T05:04:50.819Z,9.10
2019-03-03T05:05:50.825Z,10.80
2019-03-03T05:06:50.797Z,7.40
2019-03-03T05:07:50.797Z,10.39
2019-03-03T05:08:50.768Z,11.80
2019-03-03T05:09:50.756Z,9.89
2019-03-03T05:10:50.752Z,8.69
2019-03-03T05:11:50.819Z,9.39
2019-03-03T05:12:50.721Z,8.60
2019-03-03T05:13:50.718Z,8.60
2019-03-03T05:14:50.720Z,8.30
2019-03-03T05:15:50.714Z,6.69
2019-03-03T05:16:50.694Z,8.80
2019-03-03T05:17:50.669Z,7.00
2019-03-03T05:18:50.666Z,10.89
2019-03-03T05:19:50.656Z,9.30
2019-03-03T05:20:50.662Z,7.90
2019-03-03T05:21:50.637Z,6.90
2019-03-03T05:22:50.624Z,10.39
2019-03-03T05:23:50.598Z,8.39
2019-03-03T05:24:50.643Z,8.00
2019-03-03T05:25:50.581Z,8.00
2019-03-03T05:26:50.565Z,7.30
2019-03-03T05:27:50.566Z,9.10
2019-03-03T05:28:50.547Z,6.90
2019-03-03T05:29:50.536Z,9.10
2019-03-03T05:30:50.529Z,9.60
2019-03-03T05:31:50.513Z,12.50
2019-03-03T05:32:50.501Z,10.50
2019-03-03T05:33:50.502Z,9.60
2019-03-03T05:34:50.475Z,8.10
2019-03-03T05:35:50.484Z,9.80
2019-03-03T05:36:50.457Z,8.39
2019-03-03T05:37:50.654Z,8.60
2019-03-03T05:38:50.432Z,12.00
2019-03-03T05:39:50.429Z,7.00
2019-03-03T05:40:50.412Z,7.59
2019-03-03T05:41:50.397Z,9.80
2019-03-03T05:42:50.401Z,8.69
2019-03-03T05:43:50.380Z,9.30
2019-03-03T05:44:50.370Z,11.60
2019-03-03T05:45:50.358Z,7.19
2019-03-03T05:46:50.343Z,11.69
2019-03-03T05:47:50.347Z,9.39
2019-03-03T05:48:50.336Z,8.19
2019-03-03T05:49:50.309Z,7.80
2019-03-03T05:50:50.303Z,9.30
2019-03-03T05:51:50.288Z,9.69
2019-03-03T05:52:50.275Z,7.90
2019-03-03T05:53:50.270Z,8.60
2019-03-03T05:54:50.308Z,9.19
2019-03-03T05:55:50.260Z,10.50
2019-03-03T05:56:50.241Z,8.30
2019-03-03T05:57:50.221Z,9.80
2019-03-03T05:58:50.213Z,8.80
2019-03-03T05:59:50.196Z,8.80
2019-03-03T06:00:50.197Z,10.50
2019-03-03T06:01:50.179Z,7.19
2019-03-03T06:02:50.170Z,8.10
2019-03-03T06:03:50.170Z,5.90
2019-03-03T06:04:50.150Z,10.30
2019-03-03T06:05:50.133Z,7.40
2019-03-03T06:06:50.130Z,8.30
2019-03-03T06:07:50.121Z,10.60
2019-03-03T06:08:50.113Z,9.10
2019-03-03T06:09:50.084Z,9.50
2019-03-03T06:10:50.073Z,7.90
2019-03-03T06:11:50.071Z,10.10
2019-03-03T06:12:50.058Z,8.39
2019-03-03T06:13:50.060Z,9.60
2019-03-03T06:14:50.044Z,6.69
2019-03-03T06:15:50.020Z,7.19
2019-03-03T06:16:50.015Z,7.30
2019-03-03T06:17:49.994Z,11.10
2019-03-03T06:18:49.988Z,9.10
2019-03-03T06:19:49.995Z,12.19
2019-03-03T06:20:49.972Z,8.60
2019-03-03T06:21:49.949Z,8.69
2019-03-03T06:22:49.944Z,9.89
2019-03-03T06:23:49.929Z,7.19
2019-03-03T06:24:49.924Z,10.00
2019-03-03T06:25:49.939Z,10.60
2019-03-03T06:26:49.908Z,9.50
2019-03-03T06:27:49.888Z,8.89
2019-03-03T06:28:49.879Z,7.40
2019-03-03T06:29:49.871Z,9.80
2019-03-03T06:30:49.849Z,11.50
2019-03-03T06:31:49.844Z,10.69
2019-03-03T06:32:49.826Z,10.39
2019-03-03T06:33:49.828Z,10.60
2019-03-03T06:34:49.810Z,11.39
2019-03-03T06:35:49.798Z,9.69
2019-03-03T06:36:49.790Z,6.59
2019-03-03T06:37:49.777Z,12.39
2019-03-03T06:38:49.760Z,9.10
2019-03-03T06:39:49.791Z,9.69
2019-03-03T06:40:49.755Z,9.10
2019-03-03T06:41:49.729Z,10.50
2019-03-03T06:42:49.746Z,7.69
2019-03-03T06:43:49.709Z,9.00
2019-03-03T06:44:49.701Z,8.30
2019-03-03T06:45:49.688Z,8.69
2019-03-03T06:46:49.679Z,9.80
2019-03-03T06:47:49.662Z,10.69
2019-03-03T06:48:49.669Z,10.69
2019-03-03T06:49:49.656Z,9.19
2019-03-03T06:50:49.638Z,9.80
2019-03-03T06:51:49.620Z,9.39
2019-03-03T06:52:49.613Z,10.10
2019-03-03T06:53:49.601Z,7.00
2019-03-03T06:54:49.603Z,8.10
2019-03-03T06:55:49.577Z,7.30
2019-03-03T06:56:49.563Z,10.00
2019-03-03T06:57:49.566Z,7.90
2019-03-03T06:58:49.548Z,9.80
2019-03-03T06:59:49.532Z,8.10
2019-03-03T07:00:49.533Z,11.10
2019-03-03T07:01:49.505Z,8.69
2019-03-03T07:02:49.498Z,11.80
2019-03-03T07:03:49.486Z,10.19
2019-03-03T07:04:49.508Z,8.69
2019-03-03T07:05:49.462Z,4.80
2019-03-03T07:06:49.457Z,9.39
2019-03-03T07:07:49.447Z,9.30
2019-03-03T07:08:49.429Z,9.19
2019-03-03T07:09:49.419Z,8.69
2019-03-03T07:10:49.424Z,7.50
2019-03-03T07:11:49.408Z,7.00
2019-03-03T07:12:49.411Z,8.60
2019-03-03T07:13:49.377Z,9.30
2019-03-03T07:14:49.365Z,10.39
2019-03-03T07:15:49.360Z,10.30
2019-03-03T07:16:49.349Z,8.89
2019-03-03T07:17:49.362Z,9.69
2019-03-03T07:18:49.324Z,9.50
2019-03-03T07:19:49.310Z,8.89
2019-03-03T07:20:49.317Z,9.50
2019-03-03T07:21:49.423Z,9.50
2019-03-03T07:22:49.278Z,7.50
2019-03-03T07:23:49.297Z,9.50
2019-03-03T07:24:49.264Z,9.60
2019-03-03T07:25:49.349Z,10.10
2019-03-03T07:26:49.234Z,7.50
2019-03-03T07:27:49.230Z,9.50
2019-03-03T07:28:49.350Z,9.30
2019-03-03T07:29:49.203Z,8.30
2019-03-03T07:30:49.198Z,10.50
2019-03-03T07:31:49.185Z,7.80
2019-03-03T07:32:49.187Z,11.89
2019-03-03T07:33:49.159Z,9.80
2019-03-03T07:34:49.151Z,9.39
2019-03-03T07:35:49.153Z,9.00
2019-03-03T07:36:49.123Z,7.80
2019-03-03T07:37:49.110Z,5.80
2019-03-03T07:38:49.100Z,9.19
2019-03-03T07:39:49.139Z,9.00
2019-03-03T07:40:49.080Z,5.90
2019-03-03T07:41:49.084Z,6.90
2019-03-03T07:42:49.323Z,8.89
2019-03-03T07:43:49.049Z,9.89
2019-03-03T07:44:49.057Z,9.50
2019-03-03T07:45:49.022Z,11.80
2019-03-03T07:46:49.009Z,6.80
2019-03-03T07:47:49.011Z,9.69
2019-03-03T07:48:49.217Z,11.50
2019-03-03T07:49:49.060Z,8.39
2019-03-03T07:50:49.076Z,11.00
2019-03-03T07:51:48.979Z,8.69
2019-03-03T07:52:48.951Z,11.80
2019-03-03T07:53:48.956Z,9.89
2019-03-03T07:54:48.923Z,10.30
2019-03-03T07:55:48.922Z,11.00
2019-03-03T07:56:48.916Z,12.60
2019-03-03T07:57:48.912Z,9.69
2019-03-03T07:58:48.882Z,7.50
2019-03-03T07:59:48.874Z,10.50
2019-03-03T08:00:48.990Z,9.80
2019-03-03T08:01:48.851Z,8.00
2019-03-03T08:02:48.863Z,8.80
2019-03-03T08:03:48.843Z,9.50
2019-03-03T08:04:50.009Z,12.60
2019-03-03T08:05:48.810Z,9.69
2019-03-03T08:06:48.795Z,11.60
2019-03-03T08:07:48.792Z,7.59
2019-03-03T08:08:48.777Z,9.60
2019-03-03T08:09:48.761Z,8.39
2019-03-03T08:10:48.860Z,10.00
2019-03-03T08:11:48.749Z,11.30
2019-03-03T08:12:48.955Z,12.19
2019-03-03T08:13:48.763Z,12.19
2019-03-03T08:14:48.726Z,9.30
2019-03-03T08:15:48.691Z,8.39
2019-03-03T08:16:48.695Z,8.69
2019-03-03T08:17:48.680Z,11.00
2019-03-03T08:18:48.679Z,8.69
2019-03-03T08:19:48.668Z,8.60
2019-03-03T08:20:48.654Z,9.50
2019-03-03T08:21:48.772Z,9.10
2019-03-03T08:22:48.675Z,8.50
2019-03-03T08:23:48.631Z,9.19
2019-03-03T08:24:48.611Z,5.90
2019-03-03T08:25:48.671Z,8.00
2019-03-03T08:26:48.581Z,7.09
2019-03-03T08:27:48.576Z,8.00
2019-03-03T08:28:48.786Z,7.19
2019-03-03T08:29:48.537Z,8.50
2019-03-03T08:30:48.539Z,7.30
2019-03-03T08:31:48.523Z,6.00
2019-03-03T08:32:48.656Z,7.19
2019-03-03T08:33:48.509Z,6.09
2019-03-03T08:34:48.558Z,3.90
2019-03-03T08:35:48.484Z,4.59
2019-03-03T08:36:48.462Z,4.50
2019-03-03T08:37:48.514Z,6.50
2019-03-03T08:38:48.505Z,8.10
2019-03-03T08:39:48.446Z,7.09
2019-03-03T08:40:48.500Z,5.80
2019-03-03T08:41:48.411Z,6.80
2019-03-03T08:42:48.409Z,5.80
2019-03-03T08:43:48.661Z,7.59
2019-03-03T08:44:48.405Z,6.19
2019-03-03T08:45:48.386Z,5.80
2019-03-03T08:46:48.358Z,7.19
2019-03-03T08:47:53.117Z,4.90
2019-03-03T08:48:48.342Z,6.40
2019-03-03T08:49:48.336Z,5.19
2019-03-03T08:50:48.313Z,6.40
2019-03-03T08:51:48.306Z,6.00
2019-03-03T08:52:48.323Z,6.90
2019-03-03T08:53:48.284Z,5.30
2019-03-03T08:54:48.301Z,4.90
2019-03-03T08:55:48.276Z,6.09
2019-03-03T08:56:48.311Z,4.40
2019-03-03T08:57:48.241Z,5.40
2019-03-03T08:58:48.261Z,6.80
2019-03-03T08:59:48.301Z,6.19
2019-03-03T09:00:48.208Z,7.19
2019-03-03T09:01:48.221Z,5.90
2019-03-03T09:02:48.190Z,5.50
2019-03-03T09:03:48.211Z,6.09
2019-03-03T09:04:48.158Z,4.40
2019-03-03T09:05:48.149Z,4.59
2019-03-03T09:06:48.140Z,3.09
2019-03-03T09:07:48.126Z,5.00
2019-03-03T09:08:48.125Z,2.59
2019-03-03T09:09:48.106Z,4.69
2019-03-03T09:10:48.107Z,4.40
2019-03-03T09:11:48.090Z,4.90
2019-03-03T09:12:48.075Z,5.09
2019-03-03T09:13:48.063Z,3.90
2019-03-03T09:14:48.068Z,4.50
2019-03-03T09:15:48.056Z,4.19
2019-03-03T09:16:48.399Z,4.50
2019-03-03T09:17:48.028Z,4.80
2019-03-03T09:18:48.010Z,4.40
2019-03-03T09:19:47.994Z,4.30
2019-03-03T09:20:47.991Z,4.59
2019-03-03T09:21:47.985Z,4.50
2019-03-03T09:22:47.977Z,2.50
2019-03-03T09:23:47.952Z,3.70
2019-03-03T09:24:47.943Z,2.79
2019-03-03T09:25:47.936Z,3.00
2019-03-03T09:26:47.920Z,2.90
2019-03-03T09:27:47.911Z,3.29
2019-03-03T09:28:47.954Z,3.79
2019-03-03T09:29:47.893Z,3.00
2019-03-03T09:30:47.945Z,3.29
2019-03-03T09:31:47.878Z,3.70
2019-03-03T09:32:47.856Z,3.20
2019-03-03T09:33:49.456Z,2.79
2019-03-03T09:34:47.832Z,4.00
2019-03-03T09:35:47.835Z,4.00
2019-03-03T09:36:47.810Z,1.50
2019-03-03T09:37:47.799Z,3.79
2019-03-03T09:38:47.795Z,4.00
2019-03-03T09:39:47.800Z,2.29
2019-03-03T09:40:47.765Z,2.70
2019-03-03T09:41:47.767Z,3.90
2019-03-03T09:42:47.752Z,3.00
2019-03-03T09:43:47.810Z,3.09
2019-03-03T09:44:47.736Z,3.40
2019-03-03T09:45:47.707Z,4.09
2019-03-03T09:46:47.713Z,2.09
2019-03-03T09:47:47.693Z,2.29
2019-03-03T09:48:47.715Z,2.50
2019-03-03T09:49:47.683Z,3.70
2019-03-03T09:50:47.669Z,1.90
2019-03-03T09:51:47.645Z,3.00
2019-03-03T09:52:47.640Z,3.20
2019-03-03T09:53:47.641Z,4.40
2019-03-03T09:54:47.620Z,2.90
2019-03-03T09:55:47.605Z,2.20
2019-03-03T09:56:47.598Z,2.90
2019-03-03T09:57:47.587Z,2.20
2019-03-03T09:58:47.575Z,4.59
2019-03-03T09:59:47.579Z,1.70
2019-03-03T10:00:47.550Z,2.59
2019-03-03T10:01:47.618Z,2.40
2019-03-03T10:02:47.549Z,3.20
2019-03-03T10:03:47.533Z,2.79
2019-03-03T10:04:47.524Z,3.20
2019-03-03T10:05:47.490Z,2.70
2019-03-03T10:06:47.484Z,2.70
2019-03-03T10:07:47.491Z,2.70
2019-03-03T10:08:47.457Z,2.29
2019-03-03T10:09:47.461Z,1.90
2019-03-03T10:10:47.448Z,2.09
2019-03-03T10:11:47.431Z,4.69
2019-03-03T10:12:47.429Z,3.09
2019-03-03T10:13:47.464Z,2.70
2019-03-03T10:14:47.401Z,4.09
2019-03-03T10:15:47.395Z,2.29
2019-03-03T10:16:47.373Z,2.50
2019-03-03T10:17:47.364Z,3.90
2019-03-03T10:18:47.351Z,2.40
2019-03-03T10:19:47.351Z,3.00
2019-03-03T10:20:47.342Z,2.59
2019-03-03T10:21:47.317Z,3.59
2019-03-03T10:22:47.311Z,3.40
2019-03-03T10:23:47.308Z,2.40
2019-03-03T10:24:47.285Z,3.09
2019-03-03T10:25:47.352Z,3.20
2019-03-03T10:26:47.264Z,2.40
2019-03-03T10:27:47.247Z,1.70
2019-03-03T10:28:47.242Z,2.09
2019-03-03T10:29:47.230Z,2.70
2019-03-03T10:30:47.213Z,3.20
2019-03-03T10:31:47.996Z,4.00
2019-03-03T10:32:47.199Z,4.69
2019-03-03T10:33:47.182Z,2.90
2019-03-03T10:34:47.183Z,2.40
2019-03-03T10:35:47.164Z,2.00
2019-03-03T10:36:47.158Z,2.70
2019-03-03T10:37:47.135Z,1.20
2019-03-03T10:38:47.138Z,2.20
2019-03-03T10:39:47.119Z,2.59
2019-03-03T10:40:47.101Z,2.79
2019-03-03T10:41:47.125Z,2.59
2019-03-03T10:42:47.094Z,1.70
2019-03-03T10:51:48.162Z,1.39
2019-03-03T10:51:48.167Z,1.79
2019-03-03T10:51:48.996Z,2.20
2019-03-03T10:52:46.967Z,3.09
2019-03-03T10:53:46.961Z,1.60
2019-03-03T10:54:46.969Z,4.19
2019-03-03T10:55:46.935Z,1.90
2019-03-03T10:56:46.927Z,1.39
2019-03-03T10:57:46.911Z,1.10
2019-03-03T10:58:46.906Z,0.80
2019-03-03T10:59:54.799Z,2.50
2019-03-03T11:01:11.666Z,3.20
2019-03-03T11:02:11.665Z,1.50
2019-03-03T11:03:11.636Z,1.20
2019-03-03T11:05:11.691Z,2.90
2019-03-03T11:07:11.599Z,2.79
2019-03-03T11:09:11.573Z,1.39
2019-03-03T11:10:11.564Z,1.60
2019-03-03T11:11:11.931Z,2.59
2019-03-03T11:12:11.551Z,1.10
2019-03-03T11:13:11.583Z,1.90
2019-03-03T11:14:11.523Z,2.20
2019-03-03T11:15:18.284Z,2.50
2019-03-03T11:16:36.889Z,2.00
2019-03-03T11:17:36.687Z,1.20
2019-03-03T11:18:36.653Z,2.09
2019-03-03T11:20:36.636Z,1.10
2019-03-03T11:21:36.625Z,1.20
2019-03-03T11:22:36.614Z,1.00
2019-03-03T11:23:36.607Z,1.70
2019-03-03T11:24:36.589Z,1.29
2019-03-03T11:25:36.649Z,1.39
2019-03-03T11:27:36.557Z,1.70
2019-03-03T11:30:39.250Z,1.10
2019-03-03T11:31:36.527Z,3.20
2019-03-03T11:32:36.590Z,1.29
2019-03-03T11:33:36.510Z,1.10
2019-03-03T11:34:36.486Z,1.20
2019-03-03T11:35:36.468Z,2.40
2019-03-03T11:37:36.517Z,1.20
2019-03-03T11:38:36.440Z,1.20
2019-03-03T11:39:36.431Z,1.00
2019-03-03T11:40:36.422Z,1.20
2019-03-03T11:41:36.395Z,1.10
2019-03-03T11:44:36.383Z,1.90
2019-03-03T11:45:36.378Z,1.20
2019-03-03T11:46:36.344Z,1.10
2019-03-03T11:48:36.339Z,1.00
2019-03-03T11:49:36.312Z,2.00
2019-03-03T11:50:36.324Z,1.10
2019-03-03T11:51:36.457Z,1.10
2019-03-03T11:52:36.281Z,1.29
2019-03-03T11:54:36.259Z,1.60
2019-03-03T11:55:36.277Z,2.29
2019-03-03T11:57:36.232Z,1.29
2019-03-03T11:58:36.208Z,3.00
2019-03-03T11:59:36.221Z,2.20
2019-03-03T12:00:44.091Z,1.29
2019-03-03T12:02:01.868Z,2.90
2019-03-03T12:03:01.871Z,1.50
2019-03-03T12:04:01.841Z,3.29
2019-03-03T12:05:01.869Z,1.79
2019-03-03T12:06:01.817Z,2.09
2019-03-03T12:07:01.816Z,1.60
2019-03-03T12:08:01.809Z,2.09
2019-03-03T12:09:01.792Z,2.40
2019-03-03T12:10:01.916Z,1.29
2019-03-03T12:11:01.782Z,1.70
2019-03-03T12:12:01.758Z,1.50
2019-03-03T12:13:01.748Z,2.00
2019-03-03T12:14:01.736Z,1.00
2019-03-03T12:15:01.722Z,2.00
2019-03-03T12:16:01.721Z,2.09
2019-03-03T12:17:01.858Z,2.29
2019-03-03T12:18:01.694Z,2.70
2019-03-03T12:19:01.848Z,2.09
2019-03-03T12:20:01.687Z,2.29
2019-03-03T12:21:01.655Z,2.50
2019-03-03T12:22:01.642Z,2.00
2019-03-03T12:23:01.640Z,2.90
2019-03-03T12:24:01.624Z,1.90
2019-03-03T12:25:02.605Z,2.09
2019-03-03T12:26:01.605Z,2.79
2019-03-03T12:27:01.596Z,1.79
2019-03-03T12:28:01.584Z,2.09
2019-03-03T12:29:01.569Z,3.09
2019-03-03T12:30:01.553Z,1.20
2019-03-03T12:31:01.577Z,1.20
2019-03-03T12:32:01.550Z,2.59
2019-03-03T12:33:01.529Z,2.79
2019-03-03T12:35:01.513Z,2.20
2019-03-03T12:36:01.516Z,1.39
2019-03-03T12:37:01.476Z,2.79
2019-03-03T12:38:01.466Z,1.29
2019-03-03T12:39:01.475Z,1.79
2019-03-03T12:40:01.456Z,1.29
2019-03-03T12:41:01.453Z,1.39
2019-03-03T12:42:03.580Z,3.00
2019-03-03T12:43:01.416Z,1.39
2019-03-03T12:44:01.404Z,1.70
2019-03-03T12:45:01.520Z,1.39
2019-03-03T12:46:01.389Z,1.20
2019-03-03T12:47:01.370Z,1.20
2019-03-03T12:48:01.372Z,1.20
2019-03-03T12:49:01.356Z,1.10
2019-03-03T12:50:01.346Z,1.20
2019-03-03T12:51:01.337Z,1.10
2019-03-03T12:52:01.340Z,2.20
2019-03-03T12:53:01.308Z,2.50
2019-03-03T12:54:01.319Z,1.50
2019-03-03T12:55:01.279Z,1.70
2019-03-03T12:56:01.273Z,1.00
2019-03-03T12:57:01.265Z,2.20
2019-03-03T12:58:01.377Z,2.59
2019-03-03T12:59:01.240Z,2.09
2019-03-03T13:00:01.242Z,3.00
2019-03-03T13:01:01.216Z,1.70
2019-03-03T13:02:01.213Z,1.50
2019-03-03T13:03:01.203Z,2.00
2019-03-03T13:04:01.194Z,2.20
2019-03-03T13:05:01.184Z,2.40
2019-03-03T13:06:01.170Z,1.39
2019-03-03T13:07:01.151Z,1.20
2019-03-03T13:08:01.139Z,2.50
2019-03-03T13:09:01.147Z,2.09
2019-03-03T13:10:01.128Z,1.20
2019-03-03T13:11:01.195Z,1.20
2019-03-03T13:12:01.101Z,2.59
2019-03-03T13:13:01.093Z,2.50
2019-03-03T13:14:01.092Z,2.09
2019-03-03T13:15:01.071Z,3.29
2019-03-03T13:16:01.100Z,2.70
2019-03-03T13:17:01.045Z,1.90
2019-03-03T13:18:01.057Z,1.90
2019-03-03T13:19:01.073Z,1.90
2019-03-03T13:20:01.098Z,1.50
2019-03-03T13:21:00.999Z,1.20
2019-03-03T13:22:01.026Z,1.90
2019-03-03T13:23:00.979Z,2.70
2019-03-03T13:24:00.970Z,1.29
2019-03-03T13:25:00.960Z,1.70
2019-03-03T13:26:00.956Z,3.20
2019-03-03T13:27:00.941Z,1.50
2019-03-03T13:28:00.926Z,1.60
2019-03-03T13:29:00.911Z,1.79
2019-03-03T13:30:00.905Z,1.79
2019-03-03T13:31:00.893Z,1.60
2019-03-03T13:32:00.881Z,3.20
2019-03-03T13:33:00.878Z,1.90
2019-03-03T13:34:00.868Z,1.70
2019-03-03T13:35:00.859Z,2.40
2019-03-03T13:36:00.842Z,2.90
2019-03-03T13:37:00.831Z,1.20